Time;durP1;ratioP1;P1;durP2;ratioP2;P2;SDS_P1;SDS_P2;PMS_P1;PMS_P2;Temp;Humidity;BMP_temperature;BMP_pressure;BME280_temperature;BME280_humidity;BME280_pressure;Samples;Min_cycle;Max_cycle;Signal;HPM_P1;HPM_P2
2022/06/15 00:00:48;;;;;;;12.50;4.25;;;;;;;17.42;100.00;99523.98;1667017;86;21055;-76
2022/06/15 00:03:15;;;;;;;10.60;4.12;;;;;;;17.27;100.00;99506.09;1667342;86;21086;-75
2022/06/15 00:05:42;;;;;;;9.43;4.37;;;;;;;17.13;100.00;99495.55;1666957;86;21094;-75
2022/06/15 00:08:10;;;;;;;10.82;4.28;;;;;;;16.98;100.00;99489.07;1667270;86;21087;-75
2022/06/15 00:10:40;;;;;;;10.25;3.83;;;;;;;16.84;100.00;99487.86;1663961;86;21112;-76
2022/06/15 00:13:09;;;;;;;8.38;4.20;;;;;;;16.74;100.00;99474.39;1640432;87;21558;-76
2022/06/15 00:15:36;;;;;;;10.88;4.12;;;;;;;16.67;100.00;99445.80;1660011;86;21104;-76
2022/06/15 00:18:04;;;;;;;9.85;4.12;;;;;;;16.59;100.00;99418.78;1674021;86;21503;-76
2022/06/15 00:20:32;;;;;;;8.68;4.10;;;;;;;16.50;100.00;99398.63;1687614;85;21144;-77
2022/06/15 00:22:59;;;;;;;8.25;4.55;;;;;;;16.45;100.00;99358.05;1707310;84;21065;-76
2022/06/15 00:25:26;;;;;;;9.98;4.70;;;;;;;16.38;100.00;99311.75;1707758;84;21085;-75
2022/06/15 00:27:55;;;;;;;13.03;4.95;;;;;;;16.38;100.00;99259.06;1707698;84;21100;-76
2022/06/15 00:30:24;;;;;;;10.30;5.10;;;;;;;16.39;100.00;99226.64;1672597;84;21018;-77
2022/06/15 00:32:51;;;;;;;9.10;4.10;;;;;;;16.36;100.00;99202.53;1650054;85;21586;-76
2022/06/15 00:35:19;;;;;;;10.63;3.90;;;;;;;16.29;100.00;99180.82;1644385;87;21063;-75
2022/06/15 00:37:47;;;;;;;7.30;3.35;;;;;;;16.20;100.00;99135.80;1630373;85;21099;-76
2022/06/15 00:40:14;;;;;;;6.40;3.35;;;;;;;16.13;100.00;99058.20;1623320;88;21100;-75
2022/06/15 00:42:42;;;;;;;11.83;4.30;;;;;;;16.09;100.00;98983.35;1654633;84;20986;-74
2022/06/15 00:45:10;;;;;;;7.97;4.12;;;;;;;16.07;100.00;98911.86;1682151;84;21044;-75
2022/06/15 00:47:38;;;;;;;8.03;3.72;;;;;;;16.00;100.00;98846.53;1745360;82;21058;-77
2022/06/15 00:50:19;;;;;;;4.65;3.30;;;;;;;15.91;100.00;98807.88;1745381;82;21081;-76
2022/06/15 00:52:54;;;;;;;6.00;3.00;;;;;;;15.82;100.00;98753.43;1695513;84;21149;-75
2022/06/15 00:55:29;;;;;;;5.78;3.17;;;;;;;15.76;100.00;98721.69;1663628;85;21028;-76
2022/06/15 00:57:56;;;;;;;6.58;3.42;;;;;;;15.72;100.00;98683.66;1664264;86;21008;-75
2022/06/15 01:00:23;;;;;;;3.15;2.58;;;;;;;15.68;100.00;98608.38;1664244;85;21032;-76
2022/06/15 01:02:51;;;;;;;4.33;2.70;;;;;;;15.63;100.00;98568.76;1663810;86;21068;-77
2022/06/15 01:05:28;;;;;;;2.75;2.55;;;;;;;15.55;100.00;98526.38;1664364;86;21067;-76
2022/06/15 01:08:21;;;;;;;4.60;2.37;;;;;;;15.50;100.00;98409.69;1664521;86;21558;-77
2022/06/15 01:11:01;;;;;;;4.97;2.80;;;;;;;15.44;100.00;98360.25;1547784;92;21060;-77
2022/06/15 01:14:16;;;;;;;4.30;2.70;;;;;;;15.37;100.00;98291.80;1566582;89;21061;-77
2022/06/15 01:16:57;;;;;;;3.62;2.47;;;;;;;15.30;100.00;98249.47;1584667;90;21059;-76
2022/06/15 01:20:06;;;;;;;4.42;2.52;;;;;;;15.26;100.00;98185.66;1584679;88;21095;-77
2022/06/15 01:22:51;;;;;;;4.85;2.50;;;;;;;15.21;100.00;98154.27;1584478;91;21119;-76
2022/06/15 01:25:54;;;;;;;4.78;2.50;;;;;;;15.21;100.00;98105.27;1581738;88;21074;-75
2022/06/15 01:28:48;;;;;;;4.10;2.72;;;;;;;15.17;100.00;98069.55;1584635;91;21083;-76
2022/06/15 01:31:26;;;;;;;4.40;2.45;;;;;;;15.13;100.00;98030.30;1543313;92;21536;-76
2022/06/15 01:34:15;;;;;;;3.25;2.52;;;;;;;15.12;100.00;97963.31;1543355;93;21152;-76
2022/06/15 01:37:03;;;;;;;2.70;2.50;;;;;;;15.12;100.00;97923.84;1542694;92;21062;-76
2022/06/15 01:39:48;;;;;;;4.35;2.50;;;;;;;15.11;100.00;97872.67;1538808;93;21062;-76
2022/06/15 01:42:31;;;;;;;6.33;2.70;;;;;;;15.11;100.00;97810.62;1539014;93;21070;-75
2022/06/15 01:45:05;;;;;;;3.30;2.55;;;;;;;15.11;100.00;97767.88;1539107;93;21093;-78
2022/06/15 01:47:33;;;;;;;4.67;3.10;;;;;;;15.10;100.00;97705.53;1503824;95;21122;-76
2022/06/15 01:50:19;;;;;;;3.35;2.42;;;;;;;15.12;100.00;97689.77;1518676;94;21120;-75
2022/06/15 01:53:20;;;;;;;5.37;2.67;;;;;;;15.09;100.00;97667.17;1459119;98;21161;-76
2022/06/15 01:56:10;;;;;;;4.70;2.67;;;;;;;15.10;100.00;97654.67;1498563;96;21128;-77
2022/06/15 01:58:40;;;;;;;2.60;2.37;;;;;;;15.12;100.00;97625.81;1504017;95;21091;-76
2022/06/15 02:01:38;;;;;;;3.65;2.45;;;;;;;15.12;100.00;97591.27;1509960;95;21067;-77
2022/06/15 02:04:25;;;;;;;3.72;2.70;;;;;;;15.13;100.00;97566.22;1510288;95;21149;-76
2022/06/15 02:07:07;;;;;;;3.85;2.58;;;;;;;15.13;100.00;97548.53;1466266;96;21078;-75
2022/06/15 02:09:45;;;;;;;3.95;2.27;;;;;;;15.12;100.00;97523.74;1485883;96;21069;-74
2022/06/15 02:12:12;;;;;;;5.55;2.62;;;;;;;15.11;100.00;97510.69;1500096;95;21067;-76
2022/06/15 02:14:45;;;;;;;3.70;2.75;;;;;;;15.13;100.00;97506.34;1481148;96;21562;-76
2022/06/15 02:17:20;;;;;;;5.33;3.02;;;;;;;15.12;100.00;97513.70;1475655;97;21103;-76
2022/06/15 02:19:54;;;;;;;5.10;2.60;;;;;;;15.12;100.00;97504.17;1429069;100;21161;-77
2022/06/15 02:22:25;;;;;;;3.35;2.50;;;;;;;15.15;100.00;97502.27;1427330;100;21221;-76
2022/06/15 02:24:54;;;;;;;3.95;2.58;;;;;;;15.18;100.00;97408.39;1428906;100;21085;-77
2022/06/15 02:27:22;;;;;;;6.78;3.45;;;;;;;15.18;100.00;97385.27;1429043;100;21591;-77
2022/06/15 02:29:54;;;;;;;3.72;2.60;;;;;;;15.18;100.00;97373.82;1428651;100;21145;-76
2022/06/15 02:32:22;;;;;;;3.60;2.50;;;;;;;15.19;100.00;97372.75;1429042;100;21817;-76
2022/06/15 02:34:50;;;;;;;3.70;2.65;;;;;;;15.23;100.00;97334.09;1410709;101;21125;-77
2022/06/15 02:37:18;;;;;;;4.45;2.60;;;;;;;15.22;100.00;97329.75;1425898;100;21169;-77
2022/06/15 02:39:48;;;;;;;2.70;2.50;;;;;;;15.22;100.00;97329.75;1459652;98;21118;-76
2022/06/15 02:42:31;;;;;;;2.72;2.40;;;;;;;15.23;100.00;97330.00;1459759;98;21114;-76
2022/06/15 02:45:06;;;;;;;4.72;2.50;;;;;;;15.25;100.00;97338.20;1512196;94;21089;-76
2022/06/15 02:47:34;;;;;;;3.85;2.62;;;;;;;15.26;100.00;97324.84;1518221;93;21082;-77
2022/06/15 02:50:02;;;;;;;3.42;2.50;;;;;;;15.26;100.00;97326.75;1540091;93;21159;-77
2022/06/15 02:52:35;;;;;;;4.25;2.67;;;;;;;15.28;100.00;97334.11;1533410;92;21102;-77
2022/06/15 02:55:05;;;;;;;3.08;2.75;;;;;;;15.27;100.00;97338.74;1558566;92;21144;-77
2022/06/15 02:57:45;;;;;;;5.12;2.90;;;;;;;15.28;100.00;97348.55;1558935;92;21094;-77
2022/06/15 03:00:13;;;;;;;3.00;2.72;;;;;;;15.30;100.00;97348.30;1557974;91;21125;-76
2022/06/15 03:02:43;;;;;;;3.62;2.95;;;;;;;15.30;100.00;97354.55;1558961;92;21121;-77
2022/06/15 03:05:10;;;;;;;2.85;2.65;;;;;;;15.33;100.00;97366.80;1558818;92;21102;-78
2022/06/15 03:07:38;;;;;;;3.67;2.85;;;;;;;15.33;100.00;97358.11;1559087;92;21120;-77
2022/06/15 03:10:09;;;;;;;4.42;2.65;;;;;;;15.36;100.00;97371.72;1559000;92;21026;-76
2022/06/15 03:12:37;;;;;;;5.20;2.65;;;;;;;15.38;100.00;97373.06;1559134;92;21073;-77
2022/06/15 03:15:06;;;;;;;4.35;2.60;;;;;;;15.40;100.00;97382.33;1615629;87;21102;-76
2022/06/15 03:17:34;;;;;;;3.17;2.90;;;;;;;15.42;100.00;97392.41;1748889;82;21039;-75
2022/06/15 03:20:04;;;;;;;3.30;2.60;;;;;;;15.43;100.00;97398.14;1736316;82;20999;-76
2022/06/15 03:22:35;;;;;;;3.45;2.65;;;;;;;15.49;100.00;97400.34;1748530;81;21062;-77
2022/06/15 03:25:03;;;;;;;2.67;2.47;;;;;;;15.55;100.00;97397.37;1736274;82;21000;-77
2022/06/15 03:27:32;;;;;;;5.90;2.62;;;;;;;15.65;100.00;97382.97;1749651;80;20999;-78
2022/06/15 03:30:00;;;;;;;4.00;2.45;;;;;;;15.75;100.00;97384.92;1746902;81;21060;-77
2022/06/15 03:32:30;;;;;;;3.08;2.77;;;;;;;15.84;100.00;97398.28;1744718;82;21482;-76
2022/06/15 03:34:59;;;;;;;3.35;2.67;;;;;;;15.92;100.00;97399.12;1748408;81;21043;-78
2022/06/15 03:37:26;;;;;;;4.90;2.72;;;;;;;15.98;100.00;97412.76;1748123;80;21043;-76
2022/06/15 03:39:55;;;;;;;3.65;2.40;;;;;;;16.02;100.00;97426.92;1747264;82;20999;-76
2022/06/15 03:42:25;;;;;;;3.17;2.65;;;;;;;16.06;100.00;97445.75;1748838;82;21045;-77
2022/06/15 03:44:55;;;;;;;3.60;2.50;;;;;;;16.12;100.00;97471.91;1749072;81;21081;-78
2022/06/15 03:47:24;;;;;;;4.20;2.80;;;;;;;16.18;100.00;97494.55;1747718;82;20983;-78
2022/06/15 03:49:53;;;;;;;5.72;3.08;;;;;;;16.20;100.00;97533.81;1748817;81;21039;-78
2022/06/15 03:52:23;;;;;;;6.50;2.55;;;;;;;16.21;100.00;97563.53;1749090;82;20976;-78
2022/06/15 03:54:50;;;;;;;3.80;2.80;;;;;;;16.22;100.00;97598.43;1749172;81;21076;-77
2022/06/15 03:57:20;;;;;;;6.60;2.67;;;;;;;16.22;100.00;97636.59;1748843;81;21051;-77
2022/06/15 03:59:48;;;;;;;4.90;2.70;;;;;;;16.24;100.00;97675.34;1740136;82;20980;-77
2022/06/15 04:02:33;;;;;;;3.85;2.62;;;;;;;16.24;100.00;97713.52;1740994;82;21074;-78
2022/06/15 04:05:02;;;;;;;3.22;2.65;;;;;;;16.24;100.00;97749.78;1748981;82;21027;-77
2022/06/15 04:10:17;;;;;;;4.17;2.58;;;;;;;16.24;100.00;97813.85;1748775;82;21065;-78
2022/06/15 04:12:45;;;;;;;4.15;2.60;;;;;;;16.29;100.00;97836.25;1740312;82;21037;-78
2022/06/15 04:15:16;;;;;;;4.12;2.92;;;;;;;16.33;100.00;97865.45;1744596;81;21043;-78
2022/06/15 04:17:45;;;;;;;4.12;2.55;;;;;;;16.37;100.00;97890.84;1747407;82;21086;-78
2022/06/15 04:20:33;;;;;;;4.28;2.47;;;;;;;16.40;100.00;97914.33;1711010;83;21026;-79
2022/06/15 04:23:13;;;;;;;3.30;2.37;;;;;;;16.48;100.00;97958.02;1679370;85;21023;-78
2022/06/15 04:25:51;;;;;;;3.72;2.40;;;;;;;16.59;100.00;98006.66;1654608;86;21043;-79
2022/06/15 04:28:20;;;;;;;2.52;2.33;;;;;;;16.65;100.00;98056.93;1650779;87;21039;-79
2022/06/15 04:30:48;;;;;;;4.12;2.50;;;;;;;16.80;100.00;98104.02;1650849;87;21059;-79
2022/06/15 04:33:16;;;;;;;4.67;2.70;;;;;;;16.96;100.00;98151.39;1650636;87;21087;-79
2022/06/15 04:35:45;;;;;;;4.22;2.67;;;;;;;17.13;100.00;98208.63;1651009;87;21119;-78
2022/06/15 04:38:14;;;;;;;3.08;2.35;;;;;;;17.26;100.00;98292.05;1650786;87;21111;-78
2022/06/15 04:40:44;;;;;;;3.22;2.77;;;;;;;17.37;100.00;98357.17;1647976;87;21028;-80
2022/06/15 04:43:12;;;;;;;2.90;2.65;;;;;;;17.48;100.00;98406.77;1650582;87;21091;-78
2022/06/15 04:45:39;;;;;;;2.83;2.50;;;;;;;17.61;100.00;98420.56;1651143;87;21555;-80
2022/06/15 04:48:10;;;;;;;2.83;2.60;;;;;;;17.73;100.00;98427.26;1650868;87;21172;-78
2022/06/15 04:50:39;;;;;;;3.30;2.50;;;;;;;17.87;100.00;98438.64;1650827;87;21099;-79
2022/06/15 04:53:07;;;;;;;3.95;2.90;;;;;;;18.05;100.00;98436.08;1650888;87;21039;-79
2022/06/15 04:55:34;;;;;;;5.17;3.30;;;;;;;18.21;100.00;98465.22;1651016;87;21066;-80
2022/06/15 04:58:02;;;;;;;3.10;2.80;;;;;;;18.27;100.00;98527.64;1651006;87;21131;-75
2022/06/15 05:00:35;;;;;;;4.30;3.08;;;;;;;18.37;100.00;98544.98;1686982;84;21059;-75
2022/06/15 05:03:04;;;;;;;4.97;2.85;;;;;;;18.49;100.00;98581.78;1644041;87;21067;-75
2022/06/15 05:05:31;;;;;;;4.37;2.80;;;;;;;18.54;100.00;98629.73;1629650;87;21069;-73
2022/06/15 05:07:59;;;;;;;14.38;8.88;;;;;;;18.68;100.00;98632.05;1658067;86;21573;-75
2022/06/15 05:10:28;;;;;;;7.65;2.80;;;;;;;18.86;100.00;98667.32;1647007;87;21074;-74
2022/06/15 05:12:56;;;;;;;6.37;2.90;;;;;;;18.97;100.00;98712.89;1596178;90;21016;-75
2022/06/15 05:15:25;;;;;;;7.72;4.85;;;;;;;19.02;100.00;98758.69;1582894;91;21495;-76
2022/06/15 05:17:53;;;;;;;4.92;3.55;;;;;;;19.07;100.00;98797.62;1595810;90;21054;-80
2022/06/15 05:20:22;;;;;;;8.50;4.83;;;;;;;19.23;100.00;98806.83;1624172;87;21095;-72
2022/06/15 05:22:52;;;;;;;8.83;5.15;;;;;;;19.44;100.00;98806.50;1649596;87;21109;-73
2022/06/15 05:25:21;;;;;;;11.03;7.00;;;;;;;19.66;100.00;98803.16;1646982;87;21047;-72
2022/06/15 05:27:49;;;;;;;7.97;5.30;;;;;;;19.90;100.00;98829.73;1647024;87;21126;-73
2022/06/15 05:30:17;;;;;;;8.20;5.10;;;;;;;20.15;100.00;98834.28;1647000;87;21126;-75
2022/06/15 05:32:46;;;;;;;11.05;7.70;;;;;;;20.33;100.00;98872.31;1632191;87;21167;-75
2022/06/15 05:35:15;;;;;;;273.52;195.57;;;;;;;20.42;100.00;98928.92;1649364;87;21050;-75
2022/06/15 05:37:43;;;;;;;21.93;12.85;;;;;;;20.48;100.00;98950.64;1653291;85;21093;-73
2022/06/15 05:40:12;;;;;;;8.13;3.92;;;;;;;20.64;100.00;98957.66;1669534;86;21155;-75
2022/06/15 05:42:41;;;;;;;4.00;3.12;;;;;;;20.84;100.00;98963.83;1669973;86;21010;-73
2022/06/15 05:45:09;;;;;;;4.85;2.77;;;;;;;21.01;100.00;99000.22;1669308;86;21081;-74
2022/06/15 05:47:37;;;;;;;8.25;3.02;;;;;;;21.20;100.00;99062.47;1669725;86;21105;-75
2022/06/15 05:50:23;;;;;;;4.12;3.10;;;;;;;21.26;100.00;99113.36;1669955;86;21053;-74
2022/06/15 05:52:54;;;;;;;7.08;3.22;;;;;;;21.29;100.00;99159.02;1669461;86;21085;-74
2022/06/15 05:55:22;;;;;;;65.57;54.18;;;;;;;21.29;100.00;99154.08;1669810;86;21014;-74
2022/06/15 05:57:49;;;;;;;20.85;13.93;;;;;;;21.51;100.00;99135.55;1672408;86;20998;-73
2022/06/15 06:00:19;;;;;;;6.08;3.52;;;;;;;21.77;100.00;99155.80;1725774;81;20972;-75
2022/06/15 06:02:47;;;;;;;4.28;2.98;;;;;;;21.98;100.00;99220.03;1746320;81;21569;-75
2022/06/15 06:05:14;;;;;;;4.53;2.90;;;;;;;22.12;100.00;99223.70;1747348;82;21015;-77
2022/06/15 06:07:41;;;;;;;3.62;2.60;;;;;;;22.34;100.00;99230.44;1734205;82;21083;-81
2022/06/15 06:10:16;;;;;;;8.23;3.50;;;;;;;22.60;100.00;99231.37;1734812;83;20976;-80
2022/06/15 06:12:45;;;;;;;4.95;3.20;;;;;;;22.92;100.00;99217.97;1686253;83;21036;-84
2022/06/15 06:15:12;;;;;;;8.03;3.40;;;;;;;23.28;100.00;99224.92;1743397;81;21015;-81
2022/06/15 06:17:41;;;;;;;4.87;2.95;;;;;;;23.61;100.00;99239.29;1713922;82;21082;-73
2022/06/15 06:20:10;;;;;;;5.80;3.75;;;;;;;23.65;100.00;99313.51;1713264;83;21457;-74
2022/06/15 06:22:37;;;;;;;5.47;2.90;;;;;;;23.36;100.00;99365.62;1712504;83;21476;-74
2022/06/15 06:25:07;;;;;;;7.85;3.20;;;;;;;22.96;100.00;99399.63;1726135;82;21043;-72
2022/06/15 06:27:34;;;;;;;4.37;2.72;;;;;;;22.61;100.00;99414.88;1699706;83;21047;-74
2022/06/15 06:30:01;;;;;;;4.78;2.65;;;;;;;22.34;100.00;99431.48;1732658;83;21007;-74
2022/06/15 06:32:28;;;;;;;4.08;3.02;;;;;;;22.17;100.00;99442.61;1678521;85;21103;-81
2022/06/15 06:34:58;;;;;;;6.15;3.00;;;;;;;22.17;100.00;99436.55;1686267;83;21596;-74
2022/06/15 06:37:25;;;;;;;5.85;3.00;;;;;;;22.27;100.00;99444.64;1690120;84;21005;-74
2022/06/15 06:39:55;;;;;;;3.65;3.00;;;;;;;22.47;100.00;99414.52;1702739;83;21035;-76
2022/06/15 06:42:22;;;;;;;23.27;12.23;;;;;;;22.83;100.00;99383.03;1632164;88;21070;-76
2022/06/15 06:44:51;;;;;;;9.05;5.15;;;;;;;23.17;100.00;99394.23;1629462;88;21015;-75
2022/06/15 06:47:20;;;;;;;17.60;9.95;;;;;;;23.47;100.00;99456.39;1607942;88;21071;-77
2022/06/15 06:49:47;;;;;;;6.75;3.60;;;;;;;23.67;100.00;99743.20;1626843;88;21089;-76
2022/06/15 06:52:32;;;;;;;5.80;3.10;;;;;;;23.84;100.00;99888.85;1627419;88;21042;-75
2022/06/15 06:55:21;;;;;;;8.38;3.70;;;;;;;24.03;100.00;99920.23;1628183;88;21103;-76
2022/06/15 06:57:53;;;;;;;6.20;3.00;;;;;;;24.41;100.00;99927.41;1628011;88;21151;-76
2022/06/15 07:00:21;;;;;;;5.75;3.05;;;;;;;24.83;100.00;99942.37;1623759;88;21082;-75
2022/06/15 07:02:48;;;;;;;5.45;3.00;;;;;;;25.12;100.00;99948.86;1628044;88;21046;-74
2022/06/15 07:05:14;;;;;;;4.97;2.50;;;;;;;25.31;100.00;99946.48;1627771;88;21030;-72
2022/06/15 07:07:42;;;;;;;6.90;2.50;;;;;;;25.43;100.00;99958.69;1627049;88;21649;-73
2022/06/15 07:10:10;;;;;;;4.47;2.55;;;;;;;25.33;100.00;99954.78;1627239;88;21062;-73
2022/06/15 07:12:37;;;;;;;8.40;2.67;;;;;;;25.39;100.00;99959.25;1669483;86;21588;-74
2022/06/15 07:15:06;;;;;;;9.10;3.25;;;;;;;25.30;100.00;99968.33;1667602;85;21501;-74
2022/06/15 07:20:19;;;;;;;5.58;2.47;;;;;;;25.73;100.00;99960.17;1820468;79;22983;-72
2022/06/15 07:22:47;;;;;;;6.28;2.55;;;;;;;25.79;100.00;99976.80;1761469;80;21190;-73
2022/06/15 07:25:15;;;;;;;4.97;2.77;;;;;;;25.60;100.00;99985.59;1761332;80;21603;-73
2022/06/15 07:27:42;;;;;;;10.03;5.55;;;;;;;25.23;100.00;99987.09;1792646;80;21079;-72
2022/06/15 07:30:14;;;;;;;6.85;3.15;;;;;;;24.77;100.00;99984.89;1792150;80;21051;-75
2022/06/15 07:32:42;;;;;;;9.15;3.00;;;;;;;24.42;100.00;99978.83;1792801;80;21038;-74
2022/06/15 07:35:16;;;;;;;7.47;4.10;;;;;;;24.35;100.00;99978.22;1762258;80;21043;-73
2022/06/15 07:37:45;;;;;;;4.28;2.90;;;;;;;24.54;100.00;99972.30;1810831;79;21035;-73
2022/06/15 07:40:13;;;;;;;5.42;2.80;;;;;;;24.97;100.00;99963.47;1810171;79;20981;-75
2022/06/15 07:42:42;;;;;;;3.77;2.70;;;;;;;25.46;100.00;99976.14;1816639;79;21588;-74
2022/06/15 07:45:09;;;;;;;3.27;2.37;;;;;;;25.86;100.00;99980.14;1816226;79;21531;-74
2022/06/15 07:50:23;;;;;;;7.95;4.12;;;;;;;26.19;100.00;99990.44;1814754;79;20961;-71
2022/06/15 07:52:51;;;;;;;9.75;4.47;;;;;;;26.47;96.27;99985.75;1778348;79;21024;-72
2022/06/15 07:55:24;;;;;;;8.40;3.05;;;;;;;26.62;100.00;99968.85;1818298;79;21061;-73
2022/06/15 07:57:52;;;;;;;7.20;2.65;;;;;;;26.73;94.84;99968.28;1699879;82;21054;-73
2022/06/15 08:00:20;;;;;;;7.65;5.15;;;;;;;26.84;90.58;99978.23;1698801;84;21061;-75
2022/06/15 08:02:48;;;;;;;9.33;5.12;;;;;;;26.81;81.77;99976.04;1663740;84;21108;-76
2022/06/15 08:05:15;;;;;;;12.20;4.30;;;;;;;26.64;89.05;99975.77;1714646;84;21027;-75
2022/06/15 08:07:44;;;;;;;4.70;2.77;;;;;;;26.74;94.62;99974.08;1713884;83;21602;-74
2022/06/15 08:10:15;;;;;;;9.40;2.85;;;;;;;26.94;91.96;99974.05;1713672;84;21042;-73
2022/06/15 08:12:43;;;;;;;8.28;2.92;;;;;;;27.23;93.77;99978.41;1674134;86;21115;-74
2022/06/15 08:15:11;;;;;;;5.45;3.42;;;;;;;27.23;87.42;99979.80;1652235;86;21076;-75
2022/06/15 08:17:46;;;;;;;4.62;2.98;;;;;;;26.95;84.59;99984.05;1661891;86;21144;-76
2022/06/15 08:20:21;;;;;;;8.18;3.50;;;;;;;26.63;84.35;99977.43;1644218;86;21250;-73
2022/06/15 08:22:53;;;;;;;3.85;2.67;;;;;;;26.47;92.05;99978.82;1638460;86;21051;-75
2022/06/15 08:25:24;;;;;;;4.53;3.00;;;;;;;26.51;88.56;99984.64;1630185;86;21493;-75
2022/06/15 08:27:51;;;;;;;4.87;2.25;;;;;;;26.70;90.52;99982.13;1589416;90;21098;-74
2022/06/15 08:30:18;;;;;;;5.10;2.50;;;;;;;27.01;86.28;99984.29;1570109;90;21236;-74
2022/06/15 08:32:45;;;;;;;3.58;2.40;;;;;;;27.18;82.01;99992.83;1584854;90;21162;-73
2022/06/15 08:35:13;;;;;;;11.78;2.70;;;;;;;27.27;83.71;99990.62;1584994;90;21161;-73
2022/06/15 08:37:40;;;;;;;5.92;2.83;;;;;;;27.33;80.80;99986.44;1585102;90;21118;-73
2022/06/15 08:40:09;;;;;;;7.28;2.40;;;;;;;27.43;80.62;99992.78;1584727;90;21085;-74
2022/06/15 08:42:41;;;;;;;3.80;2.50;;;;;;;27.49;74.57;99996.92;1584663;90;21078;-73
2022/06/15 08:45:37;;;;;;;6.65;2.50;;;;;;;27.16;71.57;100000.08;1584901;90;21146;-73
2022/06/15 08:48:42;;;;;;;9.38;4.47;;;;;;;27.03;72.72;99990.38;1564813;90;21080;-73
2022/06/15 08:51:23;;;;;;;8.45;4.10;;;;;;;27.15;73.84;99993.42;1591576;90;21552;-75
2022/06/15 08:54:07;;;;;;;5.95;2.80;;;;;;;27.43;81.06;99981.67;1597708;88;21511;-77
2022/06/15 08:56:43;;;;;;;3.95;2.55;;;;;;;27.64;69.93;99984.33;1635033;88;21102;-73
2022/06/15 08:59:43;;;;;;;5.20;2.70;;;;;;;27.70;70.50;99991.53;1634559;88;21562;-74
2022/06/15 09:02:40;;;;;;;3.72;2.60;;;;;;;27.74;70.72;99986.23;1635089;88;21027;-73
2022/06/15 09:05:30;;;;;;;11.48;5.35;;;;;;;27.89;64.86;99983.91;1591660;90;21610;-72
2022/06/15 09:08:23;;;;;;;4.20;2.45;;;;;;;28.05;65.48;99991.07;1591902;90;21150;-71
2022/06/15 09:11:30;;;;;;;5.17;2.70;;;;;;;28.29;64.39;99991.14;1583487;88;21065;-73
2022/06/15 09:14:19;;;;;;;6.35;2.50;;;;;;;28.47;63.90;99986.00;1555673;92;21272;-72
2022/06/15 09:17:19;;;;;;;7.60;3.37;;;;;;;28.70;62.40;99971.90;1558621;91;21103;-73
2022/06/15 09:20:20;;;;;;;4.60;2.72;;;;;;;28.72;58.98;99976.06;1570423;91;21137;-72
2022/06/15 09:22:55;;;;;;;4.75;3.72;;;;;;;28.50;59.39;99979.86;1527281;93;21649;-74
2022/06/15 09:25:46;;;;;;;5.95;3.12;;;;;;;28.53;63.24;99973.15;1557354;92;21742;-79
2022/06/15 09:28:23;;;;;;;8.70;3.30;;;;;;;28.69;65.23;99973.86;1514687;95;21213;-72
2022/06/15 09:30:48;;;;;;;7.55;4.47;;;;;;;28.98;63.84;99981.34;1516485;93;21128;-73
2022/06/15 09:33:22;;;;;;;3.70;2.35;;;;;;;29.24;60.27;99977.73;1514825;95;21638;-73
2022/06/15 09:36:02;;;;;;;3.65;2.10;;;;;;;29.34;54.02;99967.86;1514281;95;21472;-72
2022/06/15 09:38:30;;;;;;;3.83;2.05;;;;;;;29.42;55.77;99979.47;1515840;94;21079;-75
2022/06/15 09:41:05;;;;;;;8.20;2.77;;;;;;;29.49;54.09;99975.75;1523233;94;21307;-74
2022/06/15 09:44:06;;;;;;;6.25;2.35;;;;;;;29.56;50.52;99981.78;1522028;93;21630;-74
2022/06/15 09:46:43;;;;;;;7.67;4.62;;;;;;;29.47;50.42;99966.30;1532933;94;21668;-73
2022/06/15 09:49:32;;;;;;;9.98;5.78;;;;;;;29.53;51.00;99970.69;1513766;94;21097;-75
2022/06/15 09:52:05;;;;;;;3.87;2.20;;;;;;;29.64;50.71;99975.55;1481589;95;21211;-75
2022/06/15 09:55:14;;;;;;;7.40;2.33;;;;;;;29.81;49.36;99968.65;1509061;95;21578;-73
2022/06/15 09:57:42;;;;;;;6.92;2.37;;;;;;;29.93;48.84;99980.75;1521023;93;21113;-74
2022/06/15 10:00:14;;;;;;;4.53;2.12;;;;;;;30.13;48.69;99975.41;1533049;94;21198;-78
2022/06/15 10:02:46;;;;;;;8.38;2.75;;;;;;;30.22;47.75;99973.00;1532870;91;21086;-75
2022/06/15 10:05:30;;;;;;;9.55;2.52;;;;;;;30.16;44.72;99975.63;1533092;94;21590;-72
2022/06/15 10:07:59;;;;;;;5.95;3.75;;;;;;;29.95;44.41;99969.55;1533028;94;21094;-74
2022/06/15 10:10:37;;;;;;;6.17;2.33;;;;;;;29.72;44.18;99973.47;1532908;94;21122;-74
2022/06/15 10:13:21;;;;;;;6.17;2.87;;;;;;;29.45;44.91;99979.70;1486663;96;21258;-74
2022/06/15 10:15:53;;;;;;;8.10;2.67;;;;;;;29.48;45.37;99977.72;1473391;97;21130;-75
2022/06/15 10:18:46;;;;;;;3.15;2.00;;;;;;;29.69;45.47;99975.48;1452138;99;21129;-73
2022/06/15 10:21:19;;;;;;;4.78;1.87;;;;;;;29.92;45.41;99970.14;1451668;99;21356;-72
2022/06/15 10:23:57;;;;;;;3.98;1.80;;;;;;;30.00;43.49;99978.41;1451789;99;21193;-79
2022/06/15 10:26:35;;;;;;;3.02;1.60;;;;;;;29.91;43.90;99974.89;1494603;95;21108;-75
2022/06/15 10:29:26;;;;;;;3.92;2.30;;;;;;;29.89;42.98;99968.80;1476883;96;21099;-73
2022/06/15 10:32:12;;;;;;;6.75;2.08;;;;;;;29.91;42.42;99964.32;1516487;95;21077;-74
2022/06/15 10:34:52;;;;;;;1.42;1.30;;;;;;;30.00;43.19;99967.25;1516024;95;21168;-74
2022/06/15 10:37:46;;;;;;;3.52;1.72;;;;;;;30.23;42.22;99961.30;1516031;93;21120;-74
2022/06/15 10:40:31;;;;;;;3.22;1.60;;;;;;;30.35;42.20;99958.90;1568622;91;21148;-74
2022/06/15 10:43:07;;;;;;;4.00;1.87;;;;;;;30.35;42.52;99949.68;1540563;92;21176;-75
2022/06/15 10:45:42;;;;;;;7.83;2.00;;;;;;;30.37;42.60;99946.86;1556495;92;21174;-76
2022/06/15 10:48:20;;;;;;;;;;;;;;;30.49;41.50;99943.56;1559463;92;21157;-76
2022/06/15 10:50:55;;;;;;;4.12;1.70;;;;;;;30.51;41.67;99941.87;1591269;89;20141;-75
2022/06/15 10:53:44;;;;;;;16.45;3.10;;;;;;;30.50;42.80;99943.02;1560939;91;21073;-72
2022/06/15 11:02:23;;;;;;;4.78;1.82;;;;;;;29.67;40.74;99951.25;1454901;99;21129;-75
2022/06/15 11:04:55;;;;;;;4.62;1.87;;;;;;;29.84;39.19;99947.97;1434019;99;21167;-77
2022/06/15 11:07:31;;;;;;;6.35;3.05;;;;;;;29.90;39.13;99950.92;1446166;98;21722;-74
2022/06/15 11:10:07;;;;;;;7.72;2.77;;;;;;;29.88;39.57;99950.41;1450018;99;21252;-74
2022/06/15 11:12:44;;;;;;;8.35;3.62;;;;;;;30.02;40.98;99937.93;1463552;98;21131;-76
2022/06/15 11:15:20;;;;;;;9.88;2.72;;;;;;;30.28;40.60;99945.31;1461226;98;21110;-74
2022/06/15 11:18:03;;;;;;;8.55;3.00;;;;;;;30.36;39.69;99935.44;1452901;97;21171;-75
2022/06/15 11:20:40;;;;;;;4.47;1.95;;;;;;;30.43;40.16;99930.86;1461880;97;21681;-73
2022/06/15 11:23:36;;;;;;;4.95;2.70;;;;;;;30.57;38.40;99922.52;1465902;98;21156;-75
2022/06/15 11:29:11;;;;;;;4.55;2.05;;;;;;;30.59;40.36;99924.44;1453896;99;21133;-74
2022/06/15 11:31:39;;;;;;;5.60;2.95;;;;;;;30.60;40.43;99918.55;1504171;95;21105;-74
2022/06/15 11:34:11;;;;;;;5.97;2.87;;;;;;;30.64;39.75;99916.78;1514341;95;21081;-74
2022/06/15 11:37:05;;;;;;;13.45;4.65;;;;;;;30.75;39.77;99916.59;1498194;96;21155;-75
2022/06/15 11:39:37;;;;;;;10.85;2.42;;;;;;;30.90;39.15;99918.23;1530166;91;21107;-74
2022/06/15 11:42:07;;;;;;;6.75;3.02;;;;;;;31.09;37.90;99924.58;1526425;94;21605;-74
2022/06/15 11:44:35;;;;;;;5.08;2.50;;;;;;;30.97;36.76;99919.53;1525392;94;21100;-73
2022/06/15 11:47:24;;;;;;;3.55;2.20;;;;;;;30.76;36.87;99913.50;1525086;94;21115;-74
2022/06/15 11:50:22;;;;;;;6.05;2.70;;;;;;;30.66;37.88;99909.51;1543484;93;21090;-77
2022/06/15 11:53:19;;;;;;;5.62;1.87;;;;;;;30.78;40.10;99918.20;1525766;94;21208;-76
2022/06/15 11:56:11;;;;;;;5.10;1.77;;;;;;;30.99;38.42;99920.05;1576150;90;21105;-74
2022/06/15 11:59:00;;;;;;;4.28;1.72;;;;;;;31.13;37.00;99920.04;1535953;92;21072;-74
2022/06/15 12:01:49;;;;;;;11.73;2.05;;;;;;;31.17;37.98;99913.27;1522955;93;21160;-75
2022/06/15 12:04:58;;;;;;;6.37;2.00;;;;;;;31.18;37.52;99927.47;1536646;93;21091;-73
2022/06/15 12:07:39;;;;;;;8.53;1.65;;;;;;;31.27;37.72;99922.82;1496256;96;21123;-74
2022/06/15 12:10:23;;;;;;;5.97;1.92;;;;;;;31.37;37.54;99916.98;1499408;94;21161;-74
2022/06/15 12:12:58;;;;;;;2.92;1.50;;;;;;;31.48;36.98;99909.20;1495928;96;21128;-73
2022/06/15 12:15:47;;;;;;;2.83;1.02;;;;;;;31.51;37.53;99921.76;1516951;93;21576;-74
2022/06/15 12:18:28;;;;;;;2.67;1.35;;;;;;;31.58;36.80;99916.56;1527234;94;21137;-73